createdAt,value
2024-05-09T00:00:25.134Z,22.7
2024-05-09T00:01:41.383Z,21.4
2024-05-09T00:02:57.632Z,21.6
2024-05-09T00:04:13.881Z,21.9
2024-05-09T00:05:30.130Z,22
2024-05-09T00:06:46.379Z,21.8
2024-05-09T00:08:02.628Z,22.6
2024-05-09T00:09:18.877Z,23.1
2024-05-09T00:10:35.126Z,23.4
2024-05-09T00:11:51.375Z,23
2024-05-09T00:13:07.624Z,23.8
2024-05-09T00:14:22.889Z,24.8
2024-05-09T00:15:39.138Z,25.3
2024-05-09T00:16:55.387Z,23.1
2024-05-09T00:18:11.636Z,23.6
2024-05-09T00:19:27.885Z,24.6
2024-05-09T00:20:44.134Z,24.1
2024-05-09T00:22:00.383Z,24.9
2024-05-09T00:23:16.632Z,26.8
2024-05-09T00:24:32.882Z,27
2024-05-09T00:25:49.131Z,24.3
2024-05-09T00:27:05.380Z,23.4
2024-05-09T00:28:21.629Z,23.4
2024-05-09T00:29:37.878Z,24.2
2024-05-09T00:30:53.143Z,23.5
2024-05-09T00:32:09.392Z,24.5
2024-05-09T00:33:25.642Z,24
2024-05-09T00:34:41.891Z,24.3
2024-05-09T00:35:58.140Z,23.2
2024-05-09T00:37:14.389Z,22.9
2024-05-09T00:38:29.659Z,23.4
2024-05-09T00:39:45.908Z,25.5
2024-05-09T00:41:02.157Z,25
2024-05-09T00:42:18.406Z,25.2
2024-05-09T00:43:34.655Z,25.6
2024-05-09T00:44:50.905Z,25.6
2024-05-09T00:46:07.154Z,25.6
2024-05-09T00:47:23.403Z,25.3
2024-05-09T00:48:39.653Z,25.5
2024-05-09T00:49:55.902Z,25.7
2024-05-09T00:51:12.151Z,25.2
2024-05-09T00:52:28.400Z,25.5
2024-05-09T00:53:44.649Z,25.6
2024-05-09T00:54:59.914Z,25.5
2024-05-09T00:56:16.163Z,25.5
2024-05-09T00:57:32.412Z,25.6
2024-05-09T00:58:48.661Z,25.3
2024-05-09T01:00:04.910Z,25.7
2024-05-09T01:01:21.159Z,26.1
2024-05-09T01:02:37.409Z,26.7
2024-05-09T01:03:53.658Z,25.9
2024-05-09T01:05:09.907Z,28.1
2024-05-09T01:06:26.156Z,25.9
2024-05-09T01:07:42.405Z,25.5
2024-05-09T01:08:58.655Z,28.2
2024-05-09T01:10:14.904Z,26.3
2024-05-09T01:11:30.169Z,26.5
2024-05-09T01:12:46.418Z,26.8
2024-05-09T01:14:02.667Z,26.7
2024-05-09T01:15:18.918Z,27
2024-05-09T01:16:35.167Z,27
2024-05-09T01:17:51.416Z,25.9
2024-05-09T01:19:07.666Z,27
2024-05-09T01:20:23.915Z,26.3
2024-05-09T01:21:40.164Z,25.1
2024-05-09T01:22:56.413Z,25.2
2024-05-09T01:24:12.662Z,25.3
2024-05-09T01:25:28.911Z,25.4
2024-05-09T01:26:45.161Z,25.2
2024-05-09T01:28:00.426Z,26.2
2024-05-09T01:29:16.676Z,26.3
2024-05-09T01:30:32.925Z,26
2024-05-09T01:31:49.174Z,25.3
2024-05-09T01:33:05.423Z,25.4
2024-05-09T01:34:21.672Z,24.7
2024-05-09T01:35:37.921Z,27.1
2024-05-09T01:36:54.170Z,25.1
2024-05-09T01:38:10.420Z,25.3
2024-05-09T01:39:26.669Z,25.7
2024-05-09T01:40:42.918Z,26.8
2024-05-09T01:41:59.168Z,26.3
2024-05-09T01:43:15.418Z,25.8
2024-05-09T01:44:30.683Z,26.1
2024-05-09T01:45:46.932Z,26.9
2024-05-09T01:47:03.182Z,25.7
2024-05-09T01:48:19.431Z,26.2
2024-05-09T01:49:35.680Z,26.3
2024-05-09T01:50:51.930Z,26.7
2024-05-09T01:52:08.179Z,25.2
2024-05-09T01:53:24.428Z,25
2024-05-09T01:54:40.677Z,26
2024-05-09T01:55:56.927Z,25.3
2024-05-09T01:57:13.176Z,25.5
2024-05-09T01:58:29.425Z,26.5
2024-05-09T01:59:45.674Z,26.4
2024-05-09T02:01:00.940Z,27.7
2024-05-09T02:02:17.189Z,26.8
2024-05-09T02:03:33.438Z,26.4
2024-05-09T02:04:49.687Z,27.3
2024-05-09T02:06:05.937Z,26.5
2024-05-09T02:07:22.186Z,26.6
2024-05-09T02:08:38.435Z,26.1
2024-05-09T02:09:54.684Z,24.7
2024-05-09T02:11:10.933Z,25.5
2024-05-09T02:12:27.182Z,25.2
2024-05-09T02:13:43.433Z,25.1
2024-05-09T02:14:59.682Z,25.6
2024-05-09T02:16:15.931Z,24.2
2024-05-09T02:17:31.196Z,25
2024-05-09T02:18:47.445Z,24.1
2024-05-09T02:20:03.695Z,25.3
2024-05-09T02:21:19.944Z,24.9
2024-05-09T02:22:36.193Z,25.4
2024-05-09T02:23:52.443Z,25.5
2024-05-09T02:25:08.692Z,26.1
2024-05-09T02:26:24.941Z,25.8
2024-05-09T02:27:41.190Z,26.4
2024-05-09T02:28:57.439Z,26.4
2024-05-09T02:30:13.689Z,27.4
2024-05-09T02:31:29.938Z,27
2024-05-09T02:32:46.187Z,28.4
2024-05-09T02:34:01.452Z,28
2024-05-09T02:35:17.702Z,28.5
2024-05-09T02:36:33.951Z,27.6
2024-05-09T02:37:50.200Z,26.5
2024-05-09T02:39:06.449Z,26
2024-05-09T02:40:22.698Z,26.1
2024-05-09T02:41:38.947Z,26.5
2024-05-09T02:42:55.196Z,26.1
2024-05-09T02:44:11.445Z,25.7
2024-05-09T02:45:27.695Z,25.6
2024-05-09T02:46:43.944Z,26.4
2024-05-09T02:48:00.193Z,25.9
2024-05-09T02:49:16.442Z,27.8
2024-05-09T02:50:31.708Z,26.5
2024-05-09T02:51:47.957Z,25.1
2024-05-09T02:53:04.206Z,27.7
2024-05-09T02:54:20.455Z,27.9
2024-05-09T02:55:36.704Z,27.5
2024-05-09T02:56:52.954Z,28.5
2024-05-09T02:58:09.203Z,30.2
2024-05-09T02:59:25.452Z,29.7
2024-05-09T03:00:41.701Z,29.5
2024-05-09T03:01:57.950Z,29.2
2024-05-09T03:03:14.199Z,28.7
2024-05-09T03:04:30.449Z,28.5
2024-05-09T03:05:46.698Z,27.2
2024-05-09T03:07:01.963Z,28.4
2024-05-09T03:08:18.213Z,27.9
2024-05-09T03:09:34.462Z,27.5
2024-05-09T03:10:50.711Z,27.7
2024-05-09T03:12:06.960Z,27.3
2024-05-09T03:13:23.209Z,27.3
2024-05-09T03:14:39.458Z,28.4
2024-05-09T03:15:55.708Z,26.7
2024-05-09T03:17:11.957Z,25.1
2024-05-09T03:18:28.206Z,25.4
2024-05-09T03:19:44.456Z,25.5
2024-05-09T03:21:00.705Z,24.4
2024-05-09T03:22:16.954Z,24.3
2024-05-09T03:23:32.219Z,24.7
2024-05-09T03:24:48.468Z,25.8
2024-05-09T03:26:04.717Z,26.2
2024-05-09T03:27:20.967Z,27.1
2024-05-09T03:28:37.216Z,26.9
2024-05-09T03:29:53.465Z,26.4
2024-05-09T03:31:09.714Z,27.5
2024-05-09T03:32:25.963Z,27.4
2024-05-09T03:33:42.213Z,25.8
2024-05-09T03:34:58.462Z,27.2
2024-05-09T03:36:14.711Z,26.9
2024-05-09T03:37:30.960Z,27.4
2024-05-09T03:38:47.209Z,27.5
2024-05-09T03:40:02.474Z,27.8
2024-05-09T03:41:18.724Z,29.8
2024-05-09T03:42:34.973Z,29.5
2024-05-09T03:43:51.222Z,30.3
2024-05-09T03:45:07.471Z,30
2024-05-09T03:46:23.720Z,29.8
2024-05-09T03:47:39.969Z,29.9
2024-05-09T03:48:56.219Z,27.9
2024-05-09T03:50:12.468Z,27.9
2024-05-09T03:51:28.717Z,28.1
2024-05-09T03:52:44.967Z,27.8
2024-05-09T03:54:01.216Z,26.6
2024-05-09T03:55:17.465Z,26.7
2024-05-09T03:56:32.730Z,27.3
2024-05-09T03:57:48.979Z,27.1
2024-05-09T03:59:05.229Z,28.1
2024-05-09T04:00:21.478Z,29.5
2024-05-09T04:01:37.727Z,29.2
2024-05-09T04:02:53.976Z,29.7
2024-05-09T04:04:10.225Z,29.7
2024-05-09T04:05:26.475Z,30.5
2024-05-09T04:06:42.724Z,31.2
2024-05-09T04:07:58.973Z,30
2024-05-09T04:09:15.222Z,29.6
2024-05-09T04:10:31.471Z,29.9
2024-05-09T04:11:47.721Z,30.3
2024-05-09T04:13:02.986Z,31.5
2024-05-09T04:14:19.235Z,32.6
2024-05-09T04:15:35.485Z,33.5
2024-05-09T04:16:51.734Z,31.6
2024-05-09T04:18:07.983Z,31.8
2024-05-09T04:19:24.232Z,32.1
2024-05-09T04:20:40.481Z,36.3
2024-05-09T04:21:56.731Z,38.1
2024-05-09T04:23:12.980Z,39.2
2024-05-09T04:24:29.229Z,35.8
2024-05-09T04:25:45.479Z,38.3
2024-05-09T04:27:01.728Z,36.4
2024-05-09T04:28:17.977Z,39.4
2024-05-09T04:29:33.242Z,38.7
2024-05-09T04:30:49.491Z,39.4
2024-05-09T04:32:05.740Z,39.4
2024-05-09T04:33:21.989Z,40.6
2024-05-09T04:34:38.239Z,38.1
2024-05-09T04:35:54.488Z,37.5
2024-05-09T04:37:10.737Z,38
2024-05-09T04:38:26.987Z,37
2024-05-09T04:39:43.236Z,40.1
2024-05-09T04:40:59.485Z,38.8
2024-05-09T04:42:15.734Z,40.8
2024-05-09T04:43:31.983Z,43.3
2024-05-09T04:44:48.232Z,39.6
2024-05-09T04:46:03.497Z,39.3
2024-05-09T04:47:19.746Z,37.3
2024-05-09T04:48:35.995Z,38.8
2024-05-09T04:49:52.245Z,36.4
2024-05-09T04:51:08.494Z,36.4
2024-05-09T04:52:24.743Z,35.8
2024-05-09T04:53:40.013Z,36.1
2024-05-09T04:54:56.262Z,33.9
2024-05-09T04:56:12.511Z,33.6
2024-05-09T04:57:28.760Z,34.5
2024-05-09T04:58:45.010Z,34.7
2024-05-09T05:00:01.259Z,36.5
2024-05-09T05:01:17.508Z,34.4
2024-05-09T05:02:33.757Z,32.4
2024-05-09T05:03:50.006Z,33.2
2024-05-09T05:05:06.255Z,35.3
2024-05-09T05:06:22.504Z,33.1
2024-05-09T05:07:38.753Z,30.9
2024-05-09T05:08:55.002Z,30.9
2024-05-09T05:10:10.267Z,29.1
2024-05-09T05:11:26.516Z,32.2
2024-05-09T05:12:42.765Z,30.6
2024-05-09T05:13:59.014Z,29.5
2024-05-09T05:15:15.263Z,30.4
2024-05-09T05:16:31.512Z,27.7
2024-05-09T05:17:47.761Z,26.4
2024-05-09T05:19:04.010Z,25.9
2024-05-09T05:20:20.259Z,26
2024-05-09T05:21:36.508Z,26.5
2024-05-09T05:22:52.757Z,27.3
2024-05-09T05:24:09.006Z,26.9
2024-05-09T05:25:25.255Z,26.5
2024-05-09T05:26:40.520Z,26.5
2024-05-09T05:27:56.768Z,25.3
2024-05-09T05:29:13.017Z,27
2024-05-09T05:30:29.266Z,25
2024-05-09T05:31:45.515Z,25.3
2024-05-09T05:33:01.764Z,28.9
2024-05-09T05:34:18.013Z,25.1
2024-05-09T05:35:34.262Z,25.2
2024-05-09T05:36:50.511Z,24.9
2024-05-09T05:38:06.760Z,26.7
2024-05-09T05:39:23.009Z,24.8
2024-05-09T05:40:39.257Z,26.1
2024-05-09T05:41:55.507Z,23.2
2024-05-09T05:43:10.772Z,26.9
2024-05-09T05:44:27.021Z,25.4
2024-05-09T05:45:43.270Z,25.6
2024-05-09T05:46:59.519Z,24.8
2024-05-09T05:48:15.768Z,24.9
2024-05-09T05:49:32.017Z,25.5
2024-05-09T05:50:48.266Z,25.7
2024-05-09T05:52:04.515Z,23.5
2024-05-09T05:53:20.765Z,25.3
2024-05-09T05:54:37.014Z,24.5
2024-05-09T05:55:53.263Z,23.8
2024-05-09T05:57:09.512Z,23.2
2024-05-09T05:58:25.761Z,23.4
2024-05-09T05:59:41.026Z,22.4
2024-05-09T06:00:57.276Z,22.1
2024-05-09T06:02:13.525Z,23.3
2024-05-09T06:03:29.773Z,22.5
2024-05-09T06:04:46.022Z,22.6
2024-05-09T06:06:02.271Z,23.2
2024-05-09T06:07:18.519Z,23.2
2024-05-09T06:08:34.768Z,23.6
2024-05-09T06:09:51.016Z,22.3
2024-05-09T06:11:07.265Z,22
2024-05-09T06:12:23.513Z,22.6
2024-05-09T06:13:39.762Z,23
2024-05-09T06:14:56.010Z,21.3
2024-05-09T06:16:11.275Z,20.3
2024-05-09T06:17:27.523Z,21.3
2024-05-09T06:18:43.772Z,20.5
2024-05-09T06:20:00.020Z,20.4
2024-05-09T06:21:16.269Z,22.3
2024-05-09T06:22:32.517Z,22.4
2024-05-09T06:23:48.766Z,20
2024-05-09T06:25:05.015Z,20.4
2024-05-09T06:26:21.264Z,21.1
2024-05-09T06:27:37.512Z,19.5
2024-05-09T06:28:53.761Z,20.4
2024-05-09T06:30:10.010Z,20.4
2024-05-09T06:31:26.258Z,19.8
2024-05-09T06:32:41.523Z,20.2
2024-05-09T06:33:57.772Z,21.5
2024-05-09T06:35:14.021Z,18.7
2024-05-09T06:36:30.270Z,21.1
2024-05-09T06:37:46.519Z,21.6
2024-05-09T06:39:02.767Z,19.7
2024-05-09T06:40:19.016Z,20
2024-05-09T06:41:35.265Z,20.3
2024-05-09T06:42:51.514Z,19.7
2024-05-09T06:44:07.762Z,20
2024-05-09T06:45:24.011Z,21.8
2024-05-09T06:46:40.260Z,21.5
2024-05-09T06:47:56.509Z,18.8
2024-05-09T06:49:11.773Z,19.7
2024-05-09T06:50:28.022Z,19.1
2024-05-09T06:51:44.271Z,19.3
2024-05-09T06:53:00.519Z,19.4
2024-05-09T06:54:16.768Z,18.5
2024-05-09T06:55:33.016Z,19.6
2024-05-09T06:56:49.265Z,19
2024-05-09T06:58:05.513Z,17.9
2024-05-09T06:59:21.762Z,20
2024-05-09T07:00:38.010Z,19
2024-05-09T07:01:54.259Z,16.4
2024-05-09T07:03:10.508Z,17.3
2024-05-09T07:04:26.756Z,19.3
2024-05-09T07:05:42.021Z,20.2
2024-05-09T07:06:58.270Z,17.1
2024-05-09T07:08:14.519Z,18.2
2024-05-09T07:09:30.767Z,19.9
2024-05-09T07:10:47.016Z,18.8
2024-05-09T07:12:03.264Z,18.6
2024-05-09T07:13:19.513Z,17.1
2024-05-09T07:14:35.761Z,17.1
2024-05-09T07:15:52.010Z,16.9
2024-05-09T07:17:08.258Z,17.6
2024-05-09T07:18:24.507Z,16.8
2024-05-09T07:19:40.756Z,17.1
2024-05-09T07:20:57.005Z,16.6
2024-05-09T07:22:12.269Z,16.6
2024-05-09T07:23:28.517Z,16.2
2024-05-09T07:24:44.766Z,17
2024-05-09T07:26:01.014Z,16.4
2024-05-09T07:27:17.263Z,15.6
2024-05-09T07:28:33.511Z,15.9
2024-05-09T07:29:49.760Z,15.8
2024-05-09T07:31:06.009Z,16.1
2024-05-09T07:32:22.258Z,16.2
2024-05-09T07:33:38.506Z,15.5
2024-05-09T07:34:54.755Z,15.9
2024-05-09T07:36:11.004Z,15.7
2024-05-09T07:37:27.252Z,14.7
2024-05-09T07:38:42.517Z,15.7
2024-05-09T07:39:58.766Z,15.5
2024-05-09T07:41:15.015Z,18
2024-05-09T07:42:31.264Z,16.8
2024-05-09T07:43:47.513Z,16.2
2024-05-09T07:45:03.762Z,16.9
2024-05-09T07:46:20.011Z,17
2024-05-09T07:47:36.260Z,16.1
2024-05-09T07:48:52.509Z,15.9
2024-05-09T07:50:08.759Z,16.2
2024-05-09T07:51:25.008Z,17.1
2024-05-09T07:52:41.257Z,16.9
2024-05-09T07:53:57.506Z,16.5
2024-05-09T07:55:12.772Z,16.7
2024-05-09T07:56:29.021Z,16.1
2024-05-09T07:57:45.271Z,15.9
2024-05-09T07:59:01.520Z,16.2
2024-05-09T08:00:17.770Z,16.8
2024-05-09T08:01:34.020Z,16.3
2024-05-09T08:02:50.269Z,17.1
2024-05-09T08:04:06.519Z,16.7
2024-05-09T08:05:22.768Z,16.6
2024-05-09T08:06:39.018Z,15.1
2024-05-09T08:07:55.267Z,15.9
2024-05-09T08:09:11.517Z,15.3
2024-05-09T08:10:27.766Z,15.4
2024-05-09T08:11:43.032Z,15.8
2024-05-09T08:12:59.281Z,15.3
2024-05-09T08:14:15.531Z,15
2024-05-09T08:15:31.780Z,15.7
2024-05-09T08:16:48.030Z,16.6
2024-05-09T08:18:04.280Z,15.6
2024-05-09T08:19:20.529Z,15.5
2024-05-09T08:20:36.779Z,16.4
2024-05-09T08:21:53.028Z,16
2024-05-09T08:23:09.278Z,15.5
2024-05-09T08:24:25.528Z,14.2
2024-05-09T08:25:41.777Z,13.5
2024-05-09T08:26:58.027Z,13.7
2024-05-09T08:28:13.293Z,12.2
2024-05-09T08:29:29.542Z,11.2
2024-05-09T08:30:45.792Z,11
2024-05-09T08:32:02.042Z,11
2024-05-09T08:33:18.291Z,10.8
2024-05-09T08:34:34.541Z,10.3
2024-05-09T08:35:50.792Z,10.6
2024-05-09T08:37:07.041Z,11.4
2024-05-09T08:38:23.292Z,11.2
2024-05-09T08:39:39.542Z,10.9
2024-05-09T08:40:55.792Z,10.6
2024-05-09T08:42:12.041Z,10.9
2024-05-09T08:43:28.291Z,10.9
2024-05-09T08:44:43.557Z,11.7
2024-05-09T08:45:59.807Z,10.4
2024-05-09T08:47:16.057Z,8.5
2024-05-09T08:48:32.307Z,7.9
2024-05-09T08:49:48.557Z,7.7
2024-05-09T08:51:04.807Z,7.9
2024-05-09T08:52:21.056Z,8.3
2024-05-09T08:53:37.306Z,10.9
2024-05-09T08:54:53.556Z,10.3
2024-05-09T08:56:09.806Z,10.3
2024-05-09T08:57:26.056Z,9.4
2024-05-09T08:58:42.306Z,9.8
2024-05-09T08:59:58.556Z,9.6
2024-05-09T09:01:13.822Z,9.7
2024-05-09T09:02:30.072Z,9.6
2024-05-09T09:03:46.321Z,9.5
2024-05-09T09:05:02.571Z,9.6
2024-05-09T09:06:18.821Z,8.7
2024-05-09T09:07:35.071Z,8.8
2024-05-09T09:08:50.343Z,8.8
2024-05-09T09:10:06.593Z,9.3
2024-05-09T09:11:22.843Z,10.2
2024-05-09T09:12:39.094Z,11.3
2024-05-09T09:13:55.344Z,8.5
2024-05-09T09:15:11.594Z,8.6
2024-05-09T09:16:27.845Z,8.4
2024-05-09T09:17:44.095Z,8.3
2024-05-09T09:19:00.346Z,8.8
2024-05-09T09:20:16.596Z,10
2024-05-09T09:21:32.846Z,10.3
2024-05-09T09:22:49.097Z,9.6
2024-05-09T09:24:05.347Z,9.9
2024-05-09T09:25:20.614Z,9.5
2024-05-09T09:26:36.864Z,9.6
2024-05-09T09:27:53.115Z,9.5
2024-05-09T09:29:09.365Z,9.5
2024-05-09T09:30:25.616Z,9.2
2024-05-09T09:31:41.866Z,9
2024-05-09T09:32:58.117Z,9.3
2024-05-09T09:34:14.367Z,9.9
2024-05-09T09:35:30.618Z,10
2024-05-09T09:36:46.868Z,10.1
2024-05-09T09:38:03.118Z,9.2
2024-05-09T09:39:19.369Z,9.5
2024-05-09T09:40:35.619Z,9.6
2024-05-09T09:41:50.885Z,9.4
2024-05-09T09:43:07.135Z,9.2
2024-05-09T09:44:23.386Z,9.7
2024-05-09T09:45:39.636Z,9.7
2024-05-09T09:46:55.886Z,9.5
2024-05-09T09:48:12.137Z,9.9
2024-05-09T09:49:28.387Z,11.9
2024-05-09T09:50:44.637Z,9.1
2024-05-09T09:52:00.887Z,9.5
2024-05-09T09:53:17.137Z,9.7
2024-05-09T09:54:33.387Z,9.3
2024-05-09T09:55:49.638Z,8.5
2024-05-09T09:57:05.888Z,10
2024-05-09T09:58:21.154Z,9.8
2024-05-09T09:59:37.404Z,9.1
2024-05-09T10:00:53.654Z,10
2024-05-09T10:02:09.904Z,10.4
2024-05-09T10:03:26.154Z,9.5
2024-05-09T10:04:42.405Z,8.3
2024-05-09T10:05:58.655Z,8.9
2024-05-09T10:07:14.905Z,8.7
2024-05-09T10:08:31.155Z,9.4
2024-05-09T10:09:47.405Z,8.4
2024-05-09T10:11:03.656Z,7.6
2024-05-09T10:12:19.906Z,9.1
2024-05-09T10:13:36.156Z,9.1
2024-05-09T10:14:51.422Z,8.1
2024-05-09T10:16:07.672Z,8.2
2024-05-09T10:17:23.922Z,9.9
2024-05-09T10:18:40.172Z,9.4
2024-05-09T10:19:56.422Z,9.4
2024-05-09T10:21:12.671Z,7.6
2024-05-09T10:22:28.922Z,8.2
2024-05-09T10:23:45.172Z,9.6
2024-05-09T10:25:01.421Z,8.7
2024-05-09T10:26:17.671Z,7.9
2024-05-09T10:27:33.921Z,7.6
2024-05-09T10:28:50.172Z,8.7
2024-05-09T10:30:06.421Z,8.2
2024-05-09T10:31:21.687Z,6.8
2024-05-09T10:32:37.937Z,7.9
2024-05-09T10:33:54.186Z,8.4
2024-05-09T10:35:10.436Z,9.1
2024-05-09T10:36:26.685Z,9.2
2024-05-09T10:37:42.934Z,7.9
2024-05-09T10:38:59.184Z,8.1
2024-05-09T10:40:15.433Z,7.9
2024-05-09T10:41:31.682Z,9.4
2024-05-09T10:42:47.931Z,10.1
2024-05-09T10:44:04.180Z,10
2024-05-09T10:45:20.429Z,8.5
2024-05-09T10:46:36.677Z,8.9
2024-05-09T10:47:51.942Z,8.4
2024-05-09T10:49:08.191Z,9.7
2024-05-09T10:50:24.440Z,10.1
2024-05-09T10:51:40.689Z,9.6
2024-05-09T10:52:56.937Z,10.4
2024-05-09T10:54:13.186Z,10.4
2024-05-09T10:55:29.435Z,10.4
2024-05-09T10:56:45.684Z,9.6
2024-05-09T10:58:01.933Z,10.1
2024-05-09T10:59:18.181Z,9.7
2024-05-09T11:00:34.430Z,9.2
2024-05-09T11:01:50.679Z,9.5
2024-05-09T11:03:06.928Z,9.4
2024-05-09T11:04:22.192Z,9.6
2024-05-09T11:05:38.441Z,9.2
2024-05-09T11:06:54.689Z,9.5
2024-05-09T11:08:10.938Z,9.5
2024-05-09T11:09:27.187Z,10
2024-05-09T11:10:43.435Z,10.4
2024-05-09T11:11:59.684Z,8.9
2024-05-09T11:13:15.932Z,8.9
2024-05-09T11:14:32.181Z,9.7
2024-05-09T11:15:48.429Z,9.8
2024-05-09T11:17:04.678Z,9.9
2024-05-09T11:18:20.926Z,9.9
2024-05-09T11:19:37.174Z,9.6
2024-05-09T11:20:52.438Z,9.4
2024-05-09T11:22:08.686Z,8.7
2024-05-09T11:23:24.934Z,8.7
2024-05-09T11:24:41.183Z,9
2024-05-09T11:25:57.432Z,8.6
2024-05-09T11:27:13.680Z,8.3
2024-05-09T11:28:29.928Z,8.2
2024-05-09T11:29:46.177Z,8.8
2024-05-09T11:31:02.425Z,8.7
2024-05-09T11:32:18.674Z,8.2
2024-05-09T11:33:34.922Z,8.3
2024-05-09T11:34:51.170Z,8.7
2024-05-09T11:36:07.419Z,9
2024-05-09T11:37:22.683Z,8.5
2024-05-09T11:38:38.932Z,8.6
2024-05-09T11:39:55.181Z,8.7
2024-05-09T11:41:11.429Z,8.3
2024-05-09T11:42:27.677Z,8.5
2024-05-09T11:43:43.926Z,10.2
2024-05-09T11:45:00.174Z,7.2
2024-05-09T11:46:16.423Z,9.9
2024-05-09T11:47:32.672Z,9.5
2024-05-09T11:48:48.921Z,8.5
2024-05-09T11:50:05.169Z,7.1
2024-05-09T11:51:21.418Z,8.7
2024-05-09T11:52:37.666Z,8.7
2024-05-09T11:53:52.930Z,8
2024-05-09T11:55:09.179Z,8.3
2024-05-09T11:56:25.428Z,8.4
2024-05-09T11:57:41.677Z,8.4
2024-05-09T11:58:57.925Z,8
2024-05-09T12:00:14.173Z,8.2
2024-05-09T12:01:30.422Z,8.3
2024-05-09T12:02:46.670Z,7
2024-05-09T12:04:02.918Z,9.6
2024-05-09T12:05:19.166Z,8.1
2024-05-09T12:06:35.414Z,7.9
2024-05-09T12:07:51.663Z,9.8
2024-05-09T12:09:07.911Z,9.5
2024-05-09T12:10:23.175Z,7.5
2024-05-09T12:11:39.424Z,8.1
2024-05-09T12:12:55.673Z,9.5
2024-05-09T12:14:11.922Z,9.5
2024-05-09T12:15:28.171Z,7.6
2024-05-09T12:16:44.420Z,8.3
2024-05-09T12:18:00.669Z,9.7
2024-05-09T12:19:16.918Z,9
2024-05-09T12:20:33.167Z,9.1
2024-05-09T12:21:49.415Z,7.7
2024-05-09T12:23:05.664Z,8.2
2024-05-09T12:24:21.913Z,9.1
2024-05-09T12:25:38.162Z,8.5
2024-05-09T12:26:53.427Z,8.5
2024-05-09T12:28:09.675Z,7.8
2024-05-09T12:29:25.924Z,8.2
2024-05-09T12:30:42.173Z,8
2024-05-09T12:31:58.421Z,8.8
2024-05-09T12:33:14.670Z,8.6
2024-05-09T12:34:30.919Z,9.5
2024-05-09T12:35:47.167Z,6.8
2024-05-09T12:37:03.416Z,7.3
2024-05-09T12:38:19.665Z,7.5
2024-05-09T12:39:35.913Z,7.2
2024-05-09T12:40:52.163Z,8.6
2024-05-09T12:42:08.411Z,8.3
2024-05-09T12:43:23.676Z,8.4
2024-05-09T12:44:39.925Z,8
2024-05-09T12:45:56.174Z,8.5
2024-05-09T12:47:12.422Z,8.7
2024-05-09T12:48:28.671Z,8.2
2024-05-09T12:49:44.920Z,6.6
2024-05-09T12:51:01.168Z,6.5
2024-05-09T12:52:17.417Z,9.3
2024-05-09T12:53:33.666Z,10.5
2024-05-09T12:54:49.915Z,7.6
2024-05-09T12:56:06.164Z,9.7
2024-05-09T12:57:22.412Z,9.2
2024-05-09T12:58:38.661Z,8.1
2024-05-09T12:59:53.926Z,8.9
2024-05-09T13:01:10.175Z,8.2
2024-05-09T13:02:26.424Z,8.5
2024-05-09T13:03:42.673Z,7.7
2024-05-09T13:04:58.921Z,9.9
2024-05-09T13:06:15.170Z,9.5
2024-05-09T13:07:31.419Z,7.5
2024-05-09T13:08:47.668Z,9.9
2024-05-09T13:10:03.917Z,8.8
2024-05-09T13:11:20.165Z,7.4
2024-05-09T13:12:36.414Z,9.2
2024-05-09T13:13:52.663Z,8.4
2024-05-09T13:15:08.912Z,8.4
2024-05-09T13:16:24.176Z,7.6
2024-05-09T13:17:40.425Z,8.4
2024-05-09T13:18:56.673Z,8.7
2024-05-09T13:20:12.922Z,8.5
2024-05-09T13:21:29.171Z,8.5
2024-05-09T13:22:45.419Z,8.1
2024-05-09T13:24:00.689Z,7.7
2024-05-09T13:25:16.937Z,7.8
2024-05-09T13:26:33.186Z,8.9
2024-05-09T13:27:49.435Z,8.3
2024-05-09T13:29:05.684Z,9.4
2024-05-09T13:30:21.932Z,7.7
2024-05-09T13:31:38.180Z,7.6
2024-05-09T13:32:54.429Z,8.4
2024-05-09T13:34:10.677Z,8.4
2024-05-09T13:35:26.926Z,7.5
2024-05-09T13:36:43.175Z,7.6
2024-05-09T13:37:59.423Z,7.4
2024-05-09T13:39:15.672Z,9.2
2024-05-09T13:40:30.936Z,8.8
2024-05-09T13:41:47.185Z,9.5
2024-05-09T13:43:03.433Z,8
2024-05-09T13:44:19.682Z,8.3
2024-05-09T13:45:35.930Z,7.8
2024-05-09T13:46:52.178Z,7.9
2024-05-09T13:48:08.428Z,8.8
2024-05-09T13:49:24.677Z,8.5
2024-05-09T13:50:40.925Z,8
2024-05-09T13:51:57.174Z,8.3
2024-05-09T13:53:13.422Z,8.6
2024-05-09T13:54:29.671Z,8.5
2024-05-09T13:55:45.919Z,8.1
2024-05-09T13:57:01.184Z,8
2024-05-09T13:58:17.432Z,8.7
2024-05-09T13:59:33.681Z,8.8
2024-05-09T14:00:49.930Z,7.2
2024-05-09T14:02:06.178Z,10.1
2024-05-09T14:03:22.427Z,9.5
2024-05-09T14:04:38.676Z,7.9
2024-05-09T14:05:54.924Z,10.4
2024-05-09T14:07:11.173Z,9.7
2024-05-09T14:08:27.421Z,7.6
2024-05-09T14:09:43.670Z,7.9
2024-05-09T14:10:59.919Z,8.5
2024-05-09T14:12:16.167Z,7.6
2024-05-09T14:13:31.432Z,7.6
2024-05-09T14:14:47.681Z,9.2
2024-05-09T14:16:03.929Z,8.6
2024-05-09T14:17:20.178Z,7.5
2024-05-09T14:18:36.426Z,10.4
2024-05-09T14:19:52.675Z,10.3
2024-05-09T14:21:08.924Z,7.8
2024-05-09T14:22:25.172Z,7.5
2024-05-09T14:23:41.421Z,9.7
2024-05-09T14:24:57.669Z,10.3
2024-05-09T14:26:13.918Z,7.7
2024-05-09T14:27:30.166Z,8.4
2024-05-09T14:28:46.415Z,9.8
2024-05-09T14:30:01.679Z,9
2024-05-09T14:31:17.928Z,8.2
2024-05-09T14:32:34.177Z,7.7
2024-05-09T14:33:50.425Z,9.7
2024-05-09T14:35:06.674Z,7.6
2024-05-09T14:36:22.922Z,8
2024-05-09T14:37:39.170Z,7.8
2024-05-09T14:38:55.419Z,9.2
2024-05-09T14:40:11.667Z,8.5
2024-05-09T14:41:27.916Z,7.9
2024-05-09T14:42:44.165Z,8.6
2024-05-09T14:44:00.413Z,8.2
2024-05-09T14:45:16.662Z,9.8
2024-05-09T14:46:31.927Z,9.5
2024-05-09T14:47:48.175Z,8.4
2024-05-09T14:49:04.423Z,8.1
2024-05-09T14:50:20.672Z,7.9
2024-05-09T14:51:36.920Z,7.7
2024-05-09T14:52:53.169Z,8.1
2024-05-09T14:54:09.418Z,8.5
2024-05-09T14:55:25.666Z,8.7
2024-05-09T14:56:41.915Z,8.8
2024-05-09T14:57:58.163Z,8.6
2024-05-09T14:59:14.412Z,8.8
2024-05-09T15:00:30.660Z,8.5
2024-05-09T15:01:46.909Z,8.4
2024-05-09T15:03:02.173Z,8.3
2024-05-09T15:04:18.422Z,7.7
2024-05-09T15:05:34.671Z,7
2024-05-09T15:06:50.919Z,9.9
2024-05-09T15:08:07.167Z,8.8
2024-05-09T15:09:23.416Z,7.6
2024-05-09T15:10:39.665Z,8.6
2024-05-09T15:11:55.913Z,8
2024-05-09T15:13:12.162Z,8.4
2024-05-09T15:14:28.410Z,8
2024-05-09T15:15:44.659Z,7.7
2024-05-09T15:17:00.907Z,8.9
2024-05-09T15:18:17.156Z,8.3
2024-05-09T15:19:32.420Z,7.3
2024-05-09T15:20:48.669Z,8
2024-05-09T15:22:04.917Z,9.3
2024-05-09T15:23:21.166Z,7.8
2024-05-09T15:24:37.414Z,10.3
2024-05-09T15:25:53.663Z,7.9
2024-05-09T15:27:09.911Z,8.1
2024-05-09T15:28:26.160Z,10.8
2024-05-09T15:29:42.408Z,7.6
2024-05-09T15:30:58.658Z,8.1
2024-05-09T15:32:14.906Z,10
2024-05-09T15:33:31.154Z,9.7
2024-05-09T15:34:47.403Z,7.9
2024-05-09T15:36:02.667Z,7.8
2024-05-09T15:37:18.916Z,9.1
2024-05-09T15:38:35.165Z,8.7
2024-05-09T15:39:51.413Z,7.4
2024-05-09T15:41:07.662Z,7.3
2024-05-09T15:42:23.910Z,7.4
2024-05-09T15:43:40.159Z,9.3
2024-05-09T15:44:56.407Z,8.6
2024-05-09T15:46:12.655Z,9.6
2024-05-09T15:47:28.904Z,7.7
2024-05-09T15:48:45.153Z,7.7
2024-05-09T15:50:01.401Z,8.1
2024-05-09T15:51:17.650Z,8.6
2024-05-09T15:52:32.914Z,9.2
2024-05-09T15:53:49.163Z,8.6
2024-05-09T15:55:05.411Z,9.3
2024-05-09T15:56:21.660Z,9.1
2024-05-09T15:57:37.908Z,9.7
2024-05-09T15:58:54.157Z,8.9
2024-05-09T16:00:10.405Z,10.8
2024-05-09T16:01:26.654Z,10.7
2024-05-09T16:02:42.902Z,7.9
2024-05-09T16:03:59.151Z,11
2024-05-09T16:05:15.399Z,9.5
2024-05-09T16:06:31.648Z,9.7
2024-05-09T16:07:47.896Z,9.7
2024-05-09T16:09:03.161Z,9.6
2024-05-09T16:10:19.410Z,8.9
2024-05-09T16:11:35.659Z,11.8
2024-05-09T16:12:51.907Z,11.5
2024-05-09T16:14:08.156Z,9.5
2024-05-09T16:15:24.405Z,12.1
2024-05-09T16:16:40.653Z,11.9
2024-05-09T16:17:56.902Z,9
2024-05-09T16:19:13.150Z,11.7
2024-05-09T16:20:29.399Z,11.8
2024-05-09T16:21:45.648Z,9.6
2024-05-09T16:23:01.896Z,12
2024-05-09T16:24:18.145Z,9.4
2024-05-09T16:25:33.409Z,9.9
2024-05-09T16:26:49.658Z,10.5
2024-05-09T16:28:05.907Z,11.1
2024-05-09T16:29:22.155Z,9.3
2024-05-09T16:30:38.404Z,10.9
2024-05-09T16:31:54.652Z,9.9
2024-05-09T16:33:10.901Z,11.6
2024-05-09T16:34:27.150Z,9.3
2024-05-09T16:35:43.398Z,9.3
2024-05-09T16:36:59.646Z,10.3
2024-05-09T16:38:15.895Z,10.2
2024-05-09T16:39:32.143Z,9.9
2024-05-09T16:40:48.392Z,10.4
2024-05-09T16:42:03.656Z,10.1
2024-05-09T16:43:19.905Z,8.9
2024-05-09T16:44:36.154Z,9.2
2024-05-09T16:45:52.402Z,8.9
2024-05-09T16:47:08.650Z,10
2024-05-09T16:48:24.899Z,10.5
2024-05-09T16:49:41.147Z,8.8
2024-05-09T16:50:57.395Z,8.6
2024-05-09T16:52:13.644Z,9.2
2024-05-09T16:53:29.892Z,11
2024-05-09T16:54:46.141Z,10.3
2024-05-09T16:56:02.389Z,10.1
2024-05-09T16:57:18.638Z,11.4
2024-05-09T16:58:33.902Z,10.9
2024-05-09T16:59:50.150Z,9.3
2024-05-09T17:01:06.399Z,9.5
2024-05-09T17:02:22.647Z,9.1
2024-05-09T17:03:38.896Z,9.9
2024-05-09T17:04:55.144Z,9.8
2024-05-09T17:06:11.393Z,9.9
2024-05-09T17:07:27.641Z,10.5
2024-05-09T17:08:43.890Z,10
2024-05-09T17:10:00.138Z,10.5
2024-05-09T17:11:16.386Z,9.7
2024-05-09T17:12:32.635Z,9.9
2024-05-09T17:13:48.883Z,9.8